Time;durP1;ratioP1;P1;durP2;ratioP2;P2;SDS_P1;SDS_P2;PMS_P1;PMS_P2;Temp;Humidity;BMP_temperature;BMP_pressure;BME280_temperature;BME280_humidity;BME280_pressure;Samples;Min_cycle;Max_cycle;Signal;HPM_P1;HPM_P2
2022/02/19 00:01:05;;;;;;;29.20;7.13;;;6.00;98.60;;;;;;5078927;28;20079;-68
2022/02/19 00:03:31;;;;;;;26.98;7.40;;;6.00;98.70;;;;;;5095128;28;20455;-68
2022/02/19 00:05:57;;;;;;;36.00;7.43;;;6.00;99.00;;;;;;5092441;28;20062;-68
2022/02/19 00:08:23;;;;;;;29.15;6.95;;;6.00;99.10;;;;;;5094237;28;20044;-68
2022/02/19 00:10:49;;;;;;;29.35;6.93;;;5.90;99.30;;;;;;5095123;28;20425;-68
2022/02/19 00:13:15;;;;;;;30.48;6.65;;;5.90;99.40;;;;;;5097150;28;20061;-68
2022/02/19 00:15:41;;;;;;;35.15;8.63;;;5.90;99.60;;;;;;5094911;28;20103;-68
2022/02/19 00:18:07;;;;;;;25.50;7.72;;;5.90;99.70;;;;;;5094627;28;20016;-68
2022/02/19 00:20:33;;;;;;;30.65;7.72;;;5.90;99.90;;;;;;5094315;28;20036;-68
2022/02/19 00:23:00;;;;;;;25.25;5.88;;;5.90;99.90;;;;;;5089243;28;20021;-68
2022/02/19 00:25:26;;;;;;;21.55;5.78;;;5.80;99.90;;;;;;5087138;28;20028;-68
2022/02/19 00:27:53;;;;;;;23.02;4.68;;;5.90;99.90;;;;;;5093681;28;20040;-68
2022/02/19 00:30:19;;;;;;;24.67;6.68;;;5.90;99.90;;;;;;5076568;28;20028;-68
2022/02/19 00:32:45;;;;;;;20.65;5.35;;;5.80;99.90;;;;;;5069670;28;20090;-68
2022/02/19 00:35:10;;;;;;;15.52;4.90;;;5.80;99.90;;;;;;5087278;28;20024;-68
2022/02/19 00:37:36;;;;;;;18.88;5.13;;;5.80;99.90;;;;;;5094721;28;20090;-68
2022/02/19 00:40:02;;;;;;;26.80;6.00;;;5.80;99.90;;;;;;5092832;28;20031;-68
2022/02/19 00:42:28;;;;;;;20.60;5.05;;;5.80;99.90;;;;;;5072877;28;20029;-68
2022/02/19 00:44:53;;;;;;;22.45;5.88;;;5.80;99.90;;;;;;5087593;28;20028;-68
2022/02/19 00:47:19;;;;;;;16.88;4.95;;;5.80;99.90;;;;;;5093897;28;20040;-68
2022/02/19 00:49:45;;;;;;;16.92;4.15;;;5.80;99.90;;;;;;5091869;28;20134;-68
2022/02/19 00:52:10;;;;;;;15.43;3.83;;;5.80;99.90;;;;;;5064838;28;20082;-68
2022/02/19 00:54:36;;;;;;;9.63;2.65;;;5.80;99.90;;;;;;5074182;28;20504;-68
2022/02/19 00:57:02;;;;;;;9.73;3.17;;;5.70;99.90;;;;;;5064047;28;20032;-68
2022/02/19 00:59:28;;;;;;;12.65;3.00;;;5.80;99.90;;;;;;5093745;28;20392;-68
2022/02/19 01:01:54;;;;;;;15.07;3.15;;;5.80;99.90;;;;;;5074993;28;20044;-68
2022/02/19 01:04:34;;;;;;;11.43;2.90;;;5.90;99.90;;;;;;5074581;28;20036;-68
2022/02/19 01:07:00;;;;;;;10.05;2.67;;;5.90;99.90;;;;;;5087775;28;20059;-68
2022/02/19 01:09:26;;;;;;;16.67;3.53;;;5.90;99.90;;;;;;5068081;28;20454;-68
2022/02/19 01:11:54;;;;;;;16.45;2.65;;;6.00;99.90;;;;;;5055348;28;20039;-68
2022/02/19 01:14:20;;;;;;;19.10;4.07;;;6.00;99.90;;;;;;5073607;28;20024;-68
2022/02/19 01:16:49;;;;;;;14.90;4.18;;;5.90;99.90;;;;;;5067427;28;20547;-68
2022/02/19 01:19:14;;;;;;;14.57;3.40;;;6.00;99.90;;;;;;5069773;28;20024;-68
2022/02/19 01:21:40;;;;;;;15.30;3.22;;;5.90;99.90;;;;;;5088230;28;20032;-68
2022/02/19 01:24:06;;;;;;;14.45;2.58;;;5.90;99.90;;;;;;5085076;28;20376;-68
2022/02/19 01:26:33;;;;;;;14.48;2.97;;;6.00;99.90;;;;;;5061928;28;20040;-68
2022/02/19 01:28:59;;;;;;;11.13;3.13;;;6.00;99.90;;;;;;5075282;28;20081;-68
2022/02/19 01:31:28;;;;;;;19.80;3.20;;;6.10;99.90;;;;;;5061216;28;20027;-68
2022/02/19 01:33:54;;;;;;;15.52;3.92;;;6.20;99.90;;;;;;5075276;28;20032;-68
2022/02/19 01:36:20;;;;;;;22.60;4.10;;;6.20;99.80;;;;;;5061716;28;20031;-68
2022/02/19 01:38:46;;;;;;;16.48;3.90;;;6.20;99.80;;;;;;5074466;28;20024;-68
2022/02/19 01:41:12;;;;;;;13.40;2.50;;;6.20;99.80;;;;;;5067989;28;20031;-68
2022/02/19 01:43:38;;;;;;;17.42;3.25;;;6.20;99.70;;;;;;5086987;28;20028;-68
2022/02/19 01:46:05;;;;;;;12.25;3.03;;;6.20;99.70;;;;;;5069037;28;20027;-68
2022/02/19 01:48:32;;;;;;;12.80;1.85;;;6.20;99.70;;;;;;5071944;28;20028;-68
2022/02/19 01:50:57;;;;;;;9.57;1.70;;;6.10;99.70;;;;;;5070266;28;20114;-68
2022/02/19 01:53:24;;;;;;;12.27;2.47;;;6.10;99.60;;;;;;5074220;28;20038;-68
2022/02/19 01:56:02;;;;;;;9.63;2.20;;;6.10;99.50;;;;;;5074285;28;20514;-68
2022/02/19 01:58:52;;;;;;;12.00;2.30;;;6.10;99.60;;;;;;5089990;28;20040;-68
2022/02/19 02:01:29;;;;;;;13.45;2.72;;;6.10;99.60;;;;;;5065530;28;20040;-68
2022/02/19 02:04:23;;;;;;;8.60;2.47;;;6.00;99.60;;;;;;5073661;28;20032;-68
2022/02/19 02:06:50;;;;;;;8.88;2.03;;;6.10;99.60;;;;;;5073315;28;20042;-68
2022/02/19 02:09:17;;;;;;;11.80;2.53;;;6.10;99.50;;;;;;5073454;28;20498;-68
2022/02/19 02:11:47;;;;;;;5.80;1.85;;;6.10;99.50;;;;;;5074801;28;20031;-68
2022/02/19 02:14:14;;;;;;;7.97;2.40;;;6.10;99.40;;;;;;5076841;28;20023;-68
2022/02/19 02:17:15;;;;;;;6.88;1.65;;;6.10;99.30;;;;;;5060473;28;20525;-68
2022/02/19 02:19:40;;;;;;;8.75;1.52;;;6.10;99.10;;;;;;5072137;28;20062;-68
2022/02/19 02:22:15;;;;;;;7.22;1.27;;;6.10;99.00;;;;;;5074666;28;20032;-68
2022/02/19 02:24:41;;;;;;;3.92;1.60;;;6.10;98.90;;;;;;5074114;28;20032;-68
2022/02/19 02:27:12;;;;;;;7.15;1.50;;;6.10;99.10;;;;;;5073722;28;20127;-68
2022/02/19 02:29:43;;;;;;;5.60;1.50;;;6.10;98.80;;;;;;5068900;28;20027;-68
2022/02/19 02:32:10;;;;;;;10.25;1.92;;;6.10;98.70;;;;;;5067486;28;20412;-68
2022/02/19 02:34:54;;;;;;;6.90;1.90;;;6.00;98.80;;;;;;5073420;28;20024;-68
2022/02/19 02:37:21;;;;;;;15.15;2.63;;;6.00;99.00;;;;;;5074306;28;20035;-68
2022/02/19 02:39:48;;;;;;;9.15;2.10;;;5.90;99.10;;;;;;5074239;28;20122;-68
2022/02/19 02:42:15;;;;;;;7.45;2.00;;;5.80;99.20;;;;;;5056922;28;20032;-68
2022/02/19 02:44:42;;;;;;;7.60;2.13;;;5.80;99.30;;;;;;5054198;28;20082;-68
2022/02/19 02:47:09;;;;;;;9.88;1.58;;;5.80;99.30;;;;;;5053749;28;20040;-69
2022/02/19 02:49:36;;;;;;;4.75;1.65;;;5.80;99.30;;;;;;5065032;28;20111;-68
2022/02/19 02:52:07;;;;;;;2.22;1.02;;;5.70;99.10;;;;;;5055332;28;20024;-68
2022/02/19 02:54:36;;;;;;;5.13;1.33;;;5.70;99.20;;;;;;5074705;28;20521;-68
2022/02/19 02:57:09;;;;;;;6.57;1.23;;;5.70;99.10;;;;;;5073894;28;20036;-68
2022/02/19 02:59:35;;;;;;;5.63;1.15;;;5.70;99.00;;;;;;5073242;28;20028;-68
2022/02/19 03:02:01;;;;;;;8.63;1.63;;;5.70;99.00;;;;;;5068431;28;20561;-68
2022/02/19 03:04:27;;;;;;;4.25;1.48;;;5.70;99.10;;;;;;5071190;28;20488;-68
2022/02/19 03:06:57;;;;;;;5.22;1.40;;;5.60;99.20;;;;;;5069666;28;20388;-68
2022/02/19 03:09:24;;;;;;;3.33;1.40;;;5.60;99.30;;;;;;5071836;28;20052;-68
2022/02/19 03:11:49;;;;;;;5.88;1.90;;;5.50;99.50;;;;;;5069256;28;20064;-68
2022/02/19 03:14:15;;;;;;;10.35;1.50;;;5.50;99.60;;;;;;5066469;28;20071;-68
2022/02/19 03:16:41;;;;;;;7.72;1.50;;;5.50;99.60;;;;;;5067408;28;20485;-68
2022/02/19 03:19:07;;;;;;;5.50;1.40;;;5.50;99.70;;;;;;5054364;28;20036;-68
2022/02/19 03:21:35;;;;;;;5.25;1.40;;;5.50;99.70;;;;;;5060761;28;20052;-68
2022/02/19 03:24:01;;;;;;;6.30;1.30;;;5.50;99.70;;;;;;5073645;28;20518;-69
2022/02/19 03:26:27;;;;;;;3.35;1.40;;;5.50;99.70;;;;;;5073860;28;20040;-69
2022/02/19 03:28:56;;;;;;;7.43;1.77;;;5.50;99.70;;;;;;5072505;28;20511;-69
2022/02/19 03:31:24;;;;;;;14.55;2.55;;;5.50;99.70;;;;;;5051709;28;20028;-69
2022/02/19 03:33:52;;;;;;;7.95;1.80;;;5.70;99.60;;;;;;5065973;28;20025;-69
2022/02/19 03:36:22;;;;;;;8.63;1.77;;;5.70;99.50;;;;;;5072855;28;20033;-68
2022/02/19 03:38:50;;;;;;;9.13;2.00;;;5.60;99.50;;;;;;5070913;28;20506;-67
2022/02/19 03:41:25;;;;;;;7.90;2.17;;;5.60;99.70;;;;;;5061615;28;20051;-67
2022/02/19 03:43:55;;;;;;;13.82;1.70;;;5.50;99.80;;;;;;5085030;28;20507;-66
2022/02/19 03:46:21;;;;;;;9.65;2.20;;;5.50;99.90;;;;;;5066203;28;20119;-67
2022/02/19 03:48:52;;;;;;;12.07;1.85;;;5.60;99.90;;;;;;5054350;28;20508;-67
2022/02/19 03:51:21;;;;;;;5.53;2.08;;;5.50;99.80;;;;;;5066367;28;20506;-67
2022/02/19 03:53:48;;;;;;;4.18;1.70;;;5.60;99.90;;;;;;5074980;28;20052;-67
2022/02/19 03:56:17;;;;;;;4.00;1.33;;;5.70;99.80;;;;;;5064399;28;20029;-67
2022/02/19 03:58:44;;;;;;;7.88;1.40;;;5.70;99.60;;;;;;5069617;28;20028;-67
2022/02/19 04:01:10;;;;;;;20.55;1.73;;;5.80;99.50;;;;;;5081207;28;20044;-66
2022/02/19 04:03:36;;;;;;;8.60;1.60;;;5.80;99.40;;;;;;5068574;28;20074;-67
2022/02/19 04:06:04;;;;;;;7.18;1.65;;;5.80;99.30;;;;;;5056981;28;20119;-67
2022/02/19 04:08:30;;;;;;;12.70;1.95;;;5.80;99.20;;;;;;5074824;28;20512;-66
2022/02/19 04:10:57;;;;;;;11.23;1.85;;;5.90;99.20;;;;;;5065300;28;20029;-67
2022/02/19 04:13:24;;;;;;;6.90;1.52;;;5.90;99.20;;;;;;5092711;28;20049;-67
2022/02/19 04:16:04;;;;;;;6.53;1.58;;;5.80;99.20;;;;;;5076410;28;20028;-67
2022/02/19 04:18:32;;;;;;;9.00;1.35;;;5.80;99.20;;;;;;5077016;28;20027;-67
2022/02/19 04:20:58;;;;;;;9.13;2.03;;;5.90;99.20;;;;;;5062342;28;20082;-67
2022/02/19 04:23:24;;;;;;;9.38;1.83;;;5.80;99.20;;;;;;5071974;28;20036;-67
2022/02/19 04:25:54;;;;;;;9.68;2.13;;;5.80;99.30;;;;;;5075524;28;20870;-67
2022/02/19 04:28:27;;;;;;;10.75;2.63;;;5.80;99.30;;;;;;5076896;28;20020;-67
2022/02/19 04:30:53;;;;;;;10.70;1.92;;;5.80;99.40;;;;;;5072558;28;20017;-67
2022/02/19 04:33:20;;;;;;;8.32;2.25;;;5.80;99.40;;;;;;5076043;28;20085;-67
2022/02/19 04:35:50;;;;;;;6.53;2.08;;;5.90;99.40;;;;;;5063154;28;20024;-67
2022/02/19 04:38:20;;;;;;;9.85;1.88;;;5.90;99.40;;;;;;5064068;28;20079;-67
2022/02/19 04:40:46;;;;;;;5.47;1.60;;;5.90;99.30;;;;;;5061973;28;20063;-67
2022/02/19 04:43:12;;;;;;;7.80;1.55;;;5.90;99.40;;;;;;5076078;28;20043;-67
2022/02/19 04:45:43;;;;;;;9.00;1.77;;;5.90;99.30;;;;;;5076442;28;20032;-67
2022/02/19 04:48:10;;;;;;;7.57;1.30;;;5.90;99.30;;;;;;5075214;28;20066;-67
2022/02/19 04:50:36;;;;;;;10.98;2.05;;;5.90;99.20;;;;;;5076361;28;20051;-67
2022/02/19 04:53:02;;;;;;;6.65;2.03;;;5.90;99.10;;;;;;5078989;28;20056;-67
2022/02/19 04:55:34;;;;;;;6.93;1.65;;;5.90;99.20;;;;;;5067010;28;20040;-67
2022/02/19 04:58:07;;;;;;;8.23;2.03;;;5.90;99.40;;;;;;5067939;28;20051;-67
2022/02/19 05:00:43;;;;;;;9.27;1.50;;;5.80;99.50;;;;;;5070078;28;20040;-66
2022/02/19 05:03:23;;;;;;;15.30;2.80;;;5.80;99.50;;;;;;5088322;28;20071;-67
2022/02/19 05:06:18;;;;;;;10.23;1.92;;;5.80;99.50;;;;;;5004314;28;20394;-66
2022/02/19 05:08:53;;;;;;;5.70;1.48;;;5.90;99.40;;;;;;5063176;28;20036;-67
2022/02/19 05:11:22;;;;;;;12.32;2.20;;;5.90;99.40;;;;;;5062341;28;20024;-67
2022/02/19 05:13:50;;;;;;;8.55;1.65;;;5.90;99.40;;;;;;5103778;28;20043;-67
2022/02/19 05:16:18;;;;;;;6.22;1.20;;;5.80;99.30;;;;;;5074452;28;20097;-66
2022/02/19 05:19:06;;;;;;;5.15;1.60;;;5.90;99.50;;;;;;5079103;28;20134;-67
2022/02/19 05:21:36;;;;;;;9.52;1.60;;;5.90;99.40;;;;;;5071874;28;20479;-67
2022/02/19 05:24:03;;;;;;;5.63;1.60;;;5.90;99.30;;;;;;5073855;28;20024;-67
2022/02/19 05:26:38;;;;;;;5.43;1.27;;;5.90;99.30;;;;;;5072453;28;21580;-67
2022/02/19 05:29:07;;;;;;;8.38;1.70;;;5.90;99.20;;;;;;5070244;28;20020;-66
2022/02/19 05:31:34;;;;;;;8.60;2.00;;;5.90;99.20;;;;;;5073542;28;20069;-67
2022/02/19 05:34:13;;;;;;;5.82;1.38;;;6.00;99.10;;;;;;5069129;28;20111;-67
2022/02/19 05:36:51;;;;;;;14.32;2.47;;;6.00;99.00;;;;;;5073747;28;20056;-67
2022/02/19 05:39:17;;;;;;;6.65;1.88;;;6.00;99.00;;;;;;5071748;28;20111;-67
2022/02/19 05:41:43;;;;;;;9.13;2.25;;;6.00;99.00;;;;;;5074257;28;20161;-67
2022/02/19 05:44:15;;;;;;;9.45;2.28;;;5.90;99.10;;;;;;5073885;28;20035;-66
2022/02/19 05:46:41;;;;;;;12.88;2.28;;;5.80;99.20;;;;;;5074087;28;20032;-67
2022/02/19 05:49:06;;;;;;;9.43;2.33;;;5.70;99.30;;;;;;5074151;28;20020;-66
2022/02/19 05:51:52;;;;;;;17.27;2.78;;;5.70;99.30;;;;;;5088087;28;20039;-67
2022/02/19 05:54:27;;;;;;;6.97;2.10;;;5.80;99.30;;;;;;5073925;28;20032;-67
2022/02/19 05:57:00;;;;;;;7.80;1.92;;;5.80;99.10;;;;;;5073918;28;20020;-67
2022/02/19 05:59:26;;;;;;;6.10;1.70;;;5.80;99.00;;;;;;5073424;28;20046;-66
2022/02/19 06:01:54;;;;;;;8.45;2.13;;;5.80;99.10;;;;;;5073571;28;20047;-69
2022/02/19 06:04:19;;;;;;;7.18;2.05;;;5.70;99.10;;;;;;5073405;28;20020;-67
2022/02/19 06:06:45;;;;;;;11.30;2.85;;;5.70;99.20;;;;;;5073752;28;20044;-67
2022/02/19 06:09:11;;;;;;;11.82;2.72;;;5.60;99.20;;;;;;5069337;28;20064;-68
2022/02/19 06:11:40;;;;;;;15.63;3.15;;;5.60;99.30;;;;;;5054018;28;20537;-68
2022/02/19 06:14:34;;;;;;;9.32;2.70;;;5.60;99.50;;;;;;5064981;28;20390;-68
2022/02/19 06:17:08;;;;;;;17.13;3.10;;;5.50;99.50;;;;;;5073398;28;20028;-68
2022/02/19 06:19:37;;;;;;;16.77;3.42;;;5.60;99.60;;;;;;5070813;28;20036;-67
2022/02/19 06:22:03;;;;;;;6.88;2.50;;;5.50;99.60;;;;;;5069331;28;20139;-68
2022/02/19 06:24:35;;;;;;;14.45;2.75;;;5.60;99.60;;;;;;5065826;28;20031;-68
2022/02/19 06:27:04;;;;;;;12.30;2.70;;;5.60;99.50;;;;;;5068373;28;20126;-67
2022/02/19 06:29:42;;;;;;;13.02;4.20;;;5.60;99.50;;;;;;5092625;28;20115;-68
2022/02/19 06:32:10;;;;;;;17.88;3.67;;;5.60;99.40;;;;;;5074084;28;20027;-68
2022/02/19 06:34:40;;;;;;;27.27;4.05;;;5.50;99.50;;;;;;5061129;28;20024;-68
2022/02/19 06:37:12;;;;;;;15.35;4.10;;;5.60;99.60;;;;;;5074561;28;20051;-68
2022/02/19 06:39:38;;;;;;;21.45;3.40;;;5.50;99.60;;;;;;5073514;28;20066;-68
2022/02/19 06:42:05;;;;;;;21.92;3.72;;;5.50;99.60;;;;;;5092334;28;20060;-68
2022/02/19 06:44:56;;;;;;;19.38;4.13;;;5.50;99.60;;;;;;5060120;28;20077;-68
2022/02/19 06:47:25;;;;;;;22.60;3.25;;;5.50;99.60;;;;;;5073631;28;20460;-68
2022/02/19 06:49:52;;;;;;;21.65;3.40;;;5.50;99.50;;;;;;5059875;28;20031;-68
2022/02/19 06:52:21;;;;;;;15.13;2.80;;;5.50;99.40;;;;;;5092602;28;20024;-68
2022/02/19 06:54:48;;;;;;;27.80;3.60;;;5.60;99.40;;;;;;5064188;28;20051;-68
2022/02/19 06:57:15;;;;;;;15.35;2.55;;;5.60;99.20;;;;;;5073840;28;20448;-68
2022/02/19 06:59:42;;;;;;;19.48;3.40;;;5.60;99.20;;;;;;5074030;28;20047;-67
2022/02/19 07:02:08;;;;;;;18.33;3.92;;;5.60;99.20;;;;;;5073136;28;20059;-68
2022/02/19 07:04:34;;;;;;;18.27;3.38;;;5.60;99.30;;;;;;5074192;28;20028;-67
2022/02/19 07:07:19;;;;;;;9.57;3.00;;;5.50;99.40;;;;;;5080203;28;20390;-67
2022/02/19 07:09:45;;;;;;;8.80;1.70;;;5.50;99.50;;;;;;5090308;28;20028;-68
2022/02/19 07:12:11;;;;;;;11.00;1.88;;;5.40;99.60;;;;;;5065629;28;20489;-68
2022/02/19 07:14:37;;;;;;;4.43;1.00;;;5.40;99.80;;;;;;5069191;28;20020;-68
2022/02/19 07:17:09;;;;;;;4.53;1.30;;;5.40;99.50;;;;;;5072953;28;20432;-70
2022/02/19 07:19:36;;;;;;;7.45;1.65;;;5.50;99.30;;;;;;5070550;28;20024;-68
2022/02/19 07:22:05;;;;;;;8.90;2.17;;;5.60;99.10;;;;;;5080669;28;20139;-68
2022/02/19 07:24:32;;;;;;;16.67;3.00;;;5.70;98.90;;;;;;5069060;28;20024;-68
2022/02/19 07:26:58;;;;;;;10.35;2.25;;;5.60;98.80;;;;;;5065500;28;20036;-68
2022/02/19 07:29:26;;;;;;;9.52;2.55;;;5.60;98.90;;;;;;5059586;28;20032;-68
2022/02/19 07:31:52;;;;;;;6.85;1.92;;;5.60;98.90;;;;;;5092096;28;20028;-68
2022/02/19 07:34:19;;;;;;;11.60;2.28;;;5.60;98.90;;;;;;5073685;28;20028;-68
2022/02/19 07:36:45;;;;;;;13.55;2.40;;;5.60;98.90;;;;;;5071260;28;20036;-67
2022/02/19 07:39:11;;;;;;;11.73;3.00;;;5.70;98.80;;;;;;5068894;28;20066;-68
2022/02/19 07:41:41;;;;;;;18.15;4.20;;;5.60;98.70;;;;;;5065860;28;20039;-68
2022/02/19 07:44:16;;;;;;;20.08;3.20;;;5.60;98.70;;;;;;5090845;28;20043;-68
2022/02/19 07:47:04;;;;;;;13.32;3.28;;;5.50;98.90;;;;;;5087205;28;20102;-68
2022/02/19 07:58:33;;;;;;;18.98;3.00;;;5.50;98.80;;;;;;5076667;28;20112;-67
2022/02/19 08:01:05;;;;;;;14.00;2.60;;;5.60;98.80;;;;;;5072611;28;20803;-68
2022/02/19 08:03:42;;;;;;;12.02;2.65;;;5.60;98.80;;;;;;5071930;28;20040;-67
2022/02/19 08:06:09;;;;;;;10.18;2.47;;;5.50;98.80;;;;;;5075439;28;20361;-67
2022/02/19 08:08:38;;;;;;;20.73;3.35;;;5.50;98.90;;;;;;5076131;28;20043;-68
2022/02/19 08:11:12;;;;;;;9.77;2.88;;;5.50;98.90;;;;;;5067110;28;20032;-67
2022/02/19 08:13:37;;;;;;;10.30;2.47;;;5.50;98.90;;;;;;5091154;28;20440;-68
2022/02/19 08:16:03;;;;;;;15.50;3.30;;;5.50;99.00;;;;;;5095227;28;20043;-68
2022/02/19 08:18:31;;;;;;;11.65;2.53;;;5.40;99.10;;;;;;5090971;28;20029;-68
2022/02/19 08:20:56;;;;;;;11.07;2.38;;;5.40;99.20;;;;;;5074780;28;20546;-68
2022/02/19 08:23:23;;;;;;;11.98;3.63;;;5.40;99.20;;;;;;5079110;28;20053;-68
2022/02/19 08:25:49;;;;;;;14.65;3.30;;;5.40;99.20;;;;;;5094252;28;20460;-67
2022/02/19 08:28:15;;;;;;;20.50;4.50;;;5.50;99.30;;;;;;5094390;28;20391;-67
2022/02/19 08:30:42;;;;;;;13.60;3.45;;;5.40;99.30;;;;;;5094979;28;20025;-67
2022/02/19 08:33:09;;;;;;;8.63;2.47;;;5.40;99.50;;;;;;5093745;28;20039;-67
2022/02/19 08:35:36;;;;;;;16.10;2.90;;;5.30;99.70;;;;;;5094970;28;20020;-67
2022/02/19 08:38:03;;;;;;;10.18;2.97;;;5.30;99.80;;;;;;5089069;28;20503;-67
2022/02/19 08:40:29;;;;;;;9.82;2.60;;;5.30;99.80;;;;;;5080480;28;20020;-67
2022/02/19 08:42:55;;;;;;;15.68;2.95;;;5.30;99.70;;;;;;5093503;28;20028;-67
2022/02/19 08:45:21;;;;;;;17.02;3.55;;;5.30;99.60;;;;;;5093347;28;20016;-67
2022/02/19 08:47:51;;;;;;;11.55;3.47;;;5.30;99.70;;;;;;5092611;28;20387;-67
2022/02/19 08:50:17;;;;;;;23.83;3.35;;;5.40;99.70;;;;;;5091724;28;20028;-67
2022/02/19 08:52:47;;;;;;;10.05;3.33;;;5.40;99.60;;;;;;5090545;28;20024;-67
2022/02/19 08:55:15;;;;;;;13.95;3.60;;;5.50;99.70;;;;;;5090663;28;20040;-69
2022/02/19 08:57:41;;;;;;;21.33;3.85;;;5.50;99.60;;;;;;5093365;28;20065;-73
2022/02/19 09:00:10;;;;;;;21.42;3.55;;;5.50;99.60;;;;;;5093297;28;20032;-67
2022/02/19 09:02:36;;;;;;;15.48;3.75;;;5.50;99.70;;;;;;5092768;28;20113;-67
2022/02/19 09:05:03;;;;;;;10.73;2.92;;;5.50;99.70;;;;;;5092951;28;20055;-67
2022/02/19 09:07:28;;;;;;;8.02;2.40;;;5.50;99.70;;;;;;5088284;28;20048;-68
2022/02/19 09:09:54;;;;;;;7.43;2.47;;;5.50;99.70;;;;;;5088529;28;20077;-67
2022/02/19 09:12:21;;;;;;;13.35;2.20;;;5.40;99.70;;;;;;5088746;28;20103;-67
2022/02/19 09:14:47;;;;;;;14.23;2.58;;;5.40;99.80;;;;;;5091207;28;20474;-68
2022/02/19 09:17:12;;;;;;;10.82;2.42;;;5.40;99.70;;;;;;5087841;28;20044;-67
2022/02/19 09:19:38;;;;;;;15.80;3.00;;;5.40;99.70;;;;;;5088049;28;20032;-68
2022/02/19 09:22:05;;;;;;;17.05;2.92;;;5.40;99.80;;;;;;5086499;28;20099;-68
2022/02/19 09:24:30;;;;;;;10.20;2.95;;;5.40;99.90;;;;;;5089384;28;20418;-69
2022/02/19 09:26:56;;;;;;;15.02;3.33;;;5.40;99.90;;;;;;5088647;28;20031;-68
2022/02/19 09:29:24;;;;;;;10.65;2.33;;;5.40;99.90;;;;;;5089531;28;20098;-68
2022/02/19 09:31:50;;;;;;;21.42;3.10;;;5.50;99.90;;;;;;5086837;28;20035;-68
2022/02/19 09:34:16;;;;;;;15.70;2.47;;;5.60;99.90;;;;;;5085425;28;20055;-69
2022/02/19 09:36:42;;;;;;;13.23;2.42;;;5.60;99.70;;;;;;5088329;28;20432;-68
2022/02/19 09:39:07;;;;;;;13.05;3.55;;;5.70;99.60;;;;;;5088864;28;20369;-68
2022/02/19 09:41:36;;;;;;;16.98;3.22;;;5.80;99.60;;;;;;5087676;28;20031;-69
2022/02/19 09:44:03;;;;;;;19.65;2.05;;;5.90;99.50;;;;;;5089526;28;20039;-68
2022/02/19 09:46:31;;;;;;;11.32;3.08;;;5.90;99.40;;;;;;5087543;28;20043;-69
2022/02/19 09:48:57;;;;;;;17.75;3.15;;;5.90;99.40;;;;;;5089936;28;20399;-67
2022/02/19 09:51:24;;;;;;;11.98;3.13;;;6.00;99.30;;;;;;5085791;28;20029;-68
2022/02/19 09:53:50;;;;;;;16.85;4.25;;;5.90;99.30;;;;;;5086746;28;20360;-69
2022/02/19 09:56:16;;;;;;;16.42;3.72;;;5.90;99.20;;;;;;5084746;28;20032;-68
2022/02/19 09:58:45;;;;;;;19.27;4.25;;;5.90;99.30;;;;;;5066736;28;20020;-66
2022/02/19 10:01:22;;;;;;;16.88;4.07;;;5.80;99.30;;;;;;5086916;28;20059;-68
2022/02/19 10:04:02;;;;;;;18.83;3.88;;;5.80;99.30;;;;;;5084988;28;20843;-67
2022/02/19 10:06:34;;;;;;;21.85;4.18;;;5.80;99.60;;;;;;5086179;28;20071;-67
2022/02/19 10:09:08;;;;;;;18.88;4.00;;;5.80;99.50;;;;;;5087400;28;20101;-67
2022/02/19 10:11:35;;;;;;;18.25;3.75;;;5.80;99.60;;;;;;5086467;28;20127;-68
2022/02/19 10:14:29;;;;;;;24.65;3.85;;;5.90;99.70;;;;;;5085179;28;20055;-67
2022/02/19 10:17:07;;;;;;;16.63;3.47;;;5.90;99.70;;;;;;5087085;28;20067;-67
2022/02/19 10:19:56;;;;;;;17.20;3.28;;;5.90;99.60;;;;;;5085350;28;21030;-68
2022/02/19 10:22:29;;;;;;;14.45;3.13;;;6.00;99.70;;;;;;5084793;28;20020;-69
2022/02/19 10:24:57;;;;;;;14.32;3.17;;;6.10;99.50;;;;;;5087039;28;20031;-70
2022/02/19 10:27:37;;;;;;;13.75;2.95;;;6.10;99.30;;;;;;5090290;28;20130;-69
2022/02/19 10:30:08;;;;;;;16.45;3.72;;;6.20;99.20;;;;;;5090490;28;20472;-69
2022/02/19 10:32:53;;;;;;;17.77;3.42;;;6.20;99.10;;;;;;5089251;28;20046;-69
2022/02/19 10:35:33;;;;;;;28.60;3.90;;;6.20;99.00;;;;;;5087053;28;20035;-68
2022/02/19 10:38:02;;;;;;;18.40;3.33;;;6.20;99.00;;;;;;5088158;28;20084;-68
2022/02/19 10:40:42;;;;;;;21.25;3.45;;;6.20;99.00;;;;;;5090121;28;20039;-68
2022/02/19 10:43:17;;;;;;;24.23;3.85;;;6.20;99.00;;;;;;5089398;28;20525;-67
2022/02/19 10:45:55;;;;;;;20.35;3.55;;;6.20;98.90;;;;;;5087620;28;20020;-68
2022/02/19 10:48:28;;;;;;;21.52;3.28;;;6.30;98.90;;;;;;5085352;28;20036;-68
2022/02/19 10:51:18;;;;;;;21.42;3.00;;;6.30;98.90;;;;;;5088310;28;20036;-67
2022/02/19 10:54:08;;;;;;;15.90;4.10;;;6.40;98.90;;;;;;5086656;28;20422;-69
2022/02/19 10:56:35;;;;;;;18.23;3.13;;;6.40;98.70;;;;;;5080537;28;20044;-67
2022/02/19 10:59:09;;;;;;;17.10;2.80;;;6.50;98.70;;;;;;5085136;28;20028;-68
2022/02/19 11:01:39;;;;;;;;;;;6.50;98.60;;;;;;5085468;28;20085;-68
2022/02/19 11:04:07;;;;;;;14.23;3.10;;;6.50;98.50;;;;;;5091014;28;19912;-67
2022/02/19 11:06:34;;;;;;;9.63;2.78;;;6.40;98.50;;;;;;5089659;28;20047;-68
2022/02/19 11:09:02;;;;;;;15.68;3.60;;;6.40;98.50;;;;;;5088224;28;20379;-67
2022/02/19 11:11:28;;;;;;;16.30;3.90;;;6.40;98.40;;;;;;5085347;28;20547;-67
2022/02/19 11:13:56;;;;;;;15.15;3.25;;;6.30;98.20;;;;;;5087092;28;20104;-67
2022/02/19 11:16:24;;;;;;;17.65;3.83;;;6.30;98.20;;;;;;5083723;28;20058;-67
2022/02/19 11:18:50;;;;;;;12.70;2.67;;;6.30;98.20;;;;;;5089018;28;20028;-67
2022/02/19 11:21:16;;;;;;;14.45;2.75;;;6.30;98.30;;;;;;5091175;28;20493;-67
2022/02/19 11:23:46;;;;;;;14.32;2.80;;;6.30;98.30;;;;;;5092263;28;20052;-67
2022/02/19 11:26:13;;;;;;;17.23;3.53;;;6.40;98.30;;;;;;5078442;28;20032;-67
2022/02/19 11:28:39;;;;;;;6.35;2.10;;;6.50;98.00;;;;;;5091547;28;20472;-66
2022/02/19 11:31:08;;;;;;;9.13;2.40;;;6.50;97.80;;;;;;5094936;28;20024;-67
2022/02/19 11:33:36;;;;;;;15.77;2.92;;;6.50;97.60;;;;;;5096363;28;20129;-67
2022/02/19 11:36:08;;;;;;;14.32;2.67;;;6.60;97.60;;;;;;5095145;28;20024;-67
2022/02/19 11:38:36;;;;;;;11.32;2.30;;;6.60;97.30;;;;;;5092630;28;20065;-67
2022/02/19 11:41:06;;;;;;;13.40;2.83;;;6.60;97.30;;;;;;5093929;28;20020;-66
2022/02/19 11:43:47;;;;;;;19.52;2.50;;;6.70;97.20;;;;;;5093109;28;20059;-67
2022/02/19 11:46:13;;;;;;;15.13;3.35;;;6.70;97.10;;;;;;5093894;28;20036;-67
2022/02/19 11:48:41;;;;;;;13.40;2.75;;;6.70;97.20;;;;;;5091620;28;20039;-67
2022/02/19 11:51:23;;;;;;;14.55;3.30;;;6.70;97.40;;;;;;5091240;28;20479;-67
2022/02/19 11:54:11;;;;;;;11.40;2.72;;;6.80;97.60;;;;;;5093077;28;20040;-67
2022/02/19 11:56:39;;;;;;;11.63;3.15;;;6.90;97.80;;;;;;5076317;28;20070;-67
2022/02/19 11:59:10;;;;;;;10.02;2.63;;;6.90;97.40;;;;;;5093510;28;20032;-67
2022/02/19 12:01:36;;;;;;;12.57;2.45;;;6.90;96.90;;;;;;5091705;28;20423;-67
2022/02/19 12:04:14;;;;;;;13.77;2.30;;;6.90;96.90;;;;;;5092345;28;20028;-68
2022/02/19 12:06:44;;;;;;;17.13;2.90;;;6.90;97.00;;;;;;5090269;28;20036;-67
2022/02/19 12:09:12;;;;;;;14.65;2.45;;;6.90;97.10;;;;;;5092236;28;20064;-67
2022/02/19 12:12:00;;;;;;;15.10;2.75;;;7.00;97.30;;;;;;5085374;28;20428;-67
2022/02/19 12:14:44;;;;;;;11.45;2.90;;;7.00;97.40;;;;;;5090602;28;20561;-67
2022/02/19 12:17:14;;;;;;;12.32;2.67;;;7.10;97.30;;;;;;5086946;28;20070;-67
2022/02/19 12:20:03;;;;;;;17.25;3.50;;;7.10;97.20;;;;;;5089492;28;20035;-67
2022/02/19 12:22:34;;;;;;;13.13;2.55;;;7.10;97.30;;;;;;5088167;28;20395;-67
2022/02/19 12:25:04;;;;;;;7.35;2.63;;;7.10;97.50;;;;;;5086325;28;20032;-68
2022/02/19 12:27:30;;;;;;;15.70;3.17;;;7.20;97.70;;;;;;5089688;28;20048;-68
2022/02/19 12:30:28;;;;;;;16.88;2.60;;;7.30;97.50;;;;;;5086288;28;20039;-67
2022/02/19 12:32:59;;;;;;;19.45;3.47;;;7.20;97.10;;;;;;5043935;28;20598;-70
2022/02/19 12:35:39;;;;;;;14.02;3.17;;;7.30;97.00;;;;;;5089672;28;20039;-67
2022/02/19 12:38:06;;;;;;;16.73;2.63;;;7.30;97.10;;;;;;5087792;28;20040;-67
2022/02/19 12:40:32;;;;;;;10.23;3.08;;;7.40;97.00;;;;;;5090831;28;20036;-67
2022/02/19 12:42:58;;;;;;;11.40;2.58;;;7.40;96.90;;;;;;5090442;28;20035;-67
2022/02/19 12:45:24;;;;;;;12.50;2.92;;;7.40;96.60;;;;;;5088781;28;20031;-67
2022/02/19 12:47:50;;;;;;;13.90;2.97;;;7.50;96.60;;;;;;5090444;28;20028;-66
2022/02/19 12:50:18;;;;;;;13.20;2.17;;;7.60;96.50;;;;;;5085492;28;20463;-67
2022/02/19 12:52:51;;;;;;;14.40;2.92;;;7.50;96.10;;;;;;5086924;28;20402;-67
2022/02/19 12:55:18;;;;;;;10.55;2.28;;;7.60;96.20;;;;;;5087763;28;20016;-67
2022/02/19 12:57:46;;;;;;;11.45;2.55;;;7.50;96.30;;;;;;5084973;28;20032;-67
2022/02/19 13:00:16;;;;;;;14.98;2.75;;;7.60;96.40;;;;;;5089314;28;20044;-67
2022/02/19 13:02:45;;;;;;;21.83;3.40;;;7.60;96.10;;;;;;5090269;28;20048;-67
2022/02/19 13:05:12;;;;;;;13.15;2.95;;;7.60;96.10;;;;;;5093022;28;20066;-66
2022/02/19 13:07:38;;;;;;;14.85;3.00;;;7.70;96.30;;;;;;5089730;28;20036;-67
2022/02/19 13:10:08;;;;;;;17.30;2.92;;;7.70;96.50;;;;;;5090210;28;20070;-67
2022/02/19 13:12:35;;;;;;;10.50;2.45;;;7.80;96.30;;;;;;5092849;28;20046;-69